sensor_id;sensor_type;location;lat;lon;timestamp;P1;durP1;ratioP1;P2;durP2;ratioP2
70929;SDS011;58588;48.102;19.682;2023-06-14T00:01:30;7.93;;;2.88;;
70929;SDS011;58588;48.102;19.682;2023-06-14T00:04:35;9.27;;;3.05;;
70929;SDS011;58588;48.102;19.682;2023-06-14T00:07:39;8.63;;;3.47;;
70929;SDS011;58588;48.102;19.682;2023-06-14T00:10:43;8.48;;;3.17;;
70929;SDS011;58588;48.102;19.682;2023-06-14T00:13:47;8.55;;;3.45;;
70929;SDS011;58588;48.102;19.682;2023-06-14T00:16:49;9.85;;;3.83;;
70929;SDS011;58588;48.102;19.682;2023-06-14T00:19:52;7.15;;;3.05;;
70929;SDS011;58588;48.102;19.682;2023-06-14T00:22:56;7.80;;;3.23;;
70929;SDS011;58588;48.102;19.682;2023-06-14T00:25:58;7.10;;;2.83;;
70929;SDS011;58588;48.102;19.682;2023-06-14T00:29:02;8.43;;;3.00;;
70929;SDS011;58588;48.102;19.682;2023-06-14T00:32:09;7.22;;;3.20;;
70929;SDS011;58588;48.102;19.682;2023-06-14T00:35:11;8.70;;;3.03;;
70929;SDS011;58588;48.102;19.682;2023-06-14T00:38:13;7.73;;;3.00;;
70929;SDS011;58588;48.102;19.682;2023-06-14T00:41:15;8.45;;;3.20;;
70929;SDS011;58588;48.102;19.682;2023-06-14T00:44:19;8.23;;;3.60;;
70929;SDS011;58588;48.102;19.682;2023-06-14T00:47:21;10.05;;;3.47;;
70929;SDS011;58588;48.102;19.682;2023-06-14T00:50:24;8.25;;;3.40;;
70929;SDS011;58588;48.102;19.682;2023-06-14T00:53:26;8.60;;;3.57;;
70929;SDS011;58588;48.102;19.682;2023-06-14T00:56:29;9.63;;;3.50;;
70929;SDS011;58588;48.102;19.682;2023-06-14T00:59:33;10.93;;;3.65;;
70929;SDS011;58588;48.102;19.682;2023-06-14T01:02:37;7.57;;;3.00;;
70929;SDS011;58588;48.102;19.682;2023-06-14T01:05:39;8.85;;;3.60;;
70929;SDS011;58588;48.102;19.682;2023-06-14T01:08:47;8.10;;;3.43;;
70929;SDS011;58588;48.102;19.682;2023-06-14T01:11:58;10.05;;;3.60;;
70929;SDS011;58588;48.102;19.682;2023-06-14T01:15:07;8.38;;;3.55;;
70929;SDS011;58588;48.102;19.682;2023-06-14T01:18:10;8.68;;;3.45;;
70929;SDS011;58588;48.102;19.682;2023-06-14T01:21:20;7.60;;;3.05;;
70929;SDS011;58588;48.102;19.682;2023-06-14T01:24:25;7.60;;;2.90;;
70929;SDS011;58588;48.102;19.682;2023-06-14T01:27:32;10.45;;;3.05;;
70929;SDS011;58588;48.102;19.682;2023-06-14T01:30:34;8.32;;;3.30;;
70929;SDS011;58588;48.102;19.682;2023-06-14T01:33:44;8.15;;;2.88;;
70929;SDS011;58588;48.102;19.682;2023-06-14T01:36:47;7.90;;;3.13;;
70929;SDS011;58588;48.102;19.682;2023-06-14T01:39:52;8.53;;;3.07;;
70929;SDS011;58588;48.102;19.682;2023-06-14T01:42:55;8.00;;;3.15;;
70929;SDS011;58588;48.102;19.682;2023-06-14T01:45:59;9.10;;;3.15;;
70929;SDS011;58588;48.102;19.682;2023-06-14T01:49:02;7.25;;;3.03;;
70929;SDS011;58588;48.102;19.682;2023-06-14T01:52:04;10.27;;;3.42;;
70929;SDS011;58588;48.102;19.682;2023-06-14T01:55:11;11.40;;;3.50;;
70929;SDS011;58588;48.102;19.682;2023-06-14T01:58:13;9.70;;;3.28;;
70929;SDS011;58588;48.102;19.682;2023-06-14T02:01:16;8.32;;;3.53;;
70929;SDS011;58588;48.102;19.682;2023-06-14T02:04:19;8.55;;;3.38;;
70929;SDS011;58588;48.102;19.682;2023-06-14T02:07:21;9.18;;;3.40;;
70929;SDS011;58588;48.102;19.682;2023-06-14T02:10:24;9.97;;;4.20;;
70929;SDS011;58588;48.102;19.682;2023-06-14T02:13:26;9.15;;;3.70;;
70929;SDS011;58588;48.102;19.682;2023-06-14T02:16:29;9.48;;;3.42;;
70929;SDS011;58588;48.102;19.682;2023-06-14T02:19:31;9.00;;;2.92;;
70929;SDS011;58588;48.102;19.682;2023-06-14T02:22:33;9.13;;;2.90;;
70929;SDS011;58588;48.102;19.682;2023-06-14T02:25:37;6.97;;;2.97;;
70929;SDS011;58588;48.102;19.682;2023-06-14T02:28:39;7.90;;;2.88;;
70929;SDS011;58588;48.102;19.682;2023-06-14T02:31:42;6.68;;;2.78;;
70929;SDS011;58588;48.102;19.682;2023-06-14T02:34:44;8.15;;;3.20;;
70929;SDS011;58588;48.102;19.682;2023-06-14T02:37:50;9.93;;;3.40;;
70929;SDS011;58588;48.102;19.682;2023-06-14T02:40:54;7.77;;;2.67;;
70929;SDS011;58588;48.102;19.682;2023-06-14T02:43:56;7.28;;;2.92;;
70929;SDS011;58588;48.102;19.682;2023-06-14T02:46:58;7.22;;;3.15;;
70929;SDS011;58588;48.102;19.682;2023-06-14T02:50:01;7.55;;;3.00;;
70929;SDS011;58588;48.102;19.682;2023-06-14T02:53:03;8.30;;;3.30;;
70929;SDS011;58588;48.102;19.682;2023-06-14T02:56:08;7.83;;;3.03;;
70929;SDS011;58588;48.102;19.682;2023-06-14T02:59:10;8.00;;;2.90;;
70929;SDS011;58588;48.102;19.682;2023-06-14T03:02:13;7.38;;;3.20;;
70929;SDS011;58588;48.102;19.682;2023-06-14T03:05:15;8.40;;;3.25;;
70929;SDS011;58588;48.102;19.682;2023-06-14T03:08:21;8.20;;;3.45;;
70929;SDS011;58588;48.102;19.682;2023-06-14T03:11:28;7.77;;;3.00;;
70929;SDS011;58588;48.102;19.682;2023-06-14T03:14:33;8.52;;;2.83;;
70929;SDS011;58588;48.102;19.682;2023-06-14T03:17:36;9.60;;;2.90;;
70929;SDS011;58588;48.102;19.682;2023-06-14T03:20:39;8.90;;;2.97;;
70929;SDS011;58588;48.102;19.682;2023-06-14T03:23:41;8.95;;;2.47;;
70929;SDS011;58588;48.102;19.682;2023-06-14T03:26:44;6.97;;;2.50;;
70929;SDS011;58588;48.102;19.682;2023-06-14T03:29:46;8.05;;;3.03;;
70929;SDS011;58588;48.102;19.682;2023-06-14T03:32:48;7.18;;;3.15;;
70929;SDS011;58588;48.102;19.682;2023-06-14T03:35:53;7.47;;;3.10;;
70929;SDS011;58588;48.102;19.682;2023-06-14T03:38:56;9.38;;;3.22;;
70929;SDS011;58588;48.102;19.682;2023-06-14T03:41:59;7.30;;;2.97;;
70929;SDS011;58588;48.102;19.682;2023-06-14T03:45:02;7.32;;;3.10;;
70929;SDS011;58588;48.102;19.682;2023-06-14T03:48:04;8.50;;;3.35;;
70929;SDS011;58588;48.102;19.682;2023-06-14T03:51:11;8.77;;;3.38;;
70929;SDS011;58588;48.102;19.682;2023-06-14T03:54:13;9.00;;;3.40;;
70929;SDS011;58588;48.102;19.682;2023-06-14T03:57:17;9.33;;;3.40;;
70929;SDS011;58588;48.102;19.682;2023-06-14T04:00:19;9.73;;;3.45;;
70929;SDS011;58588;48.102;19.682;2023-06-14T04:03:21;8.75;;;3.75;;
70929;SDS011;58588;48.102;19.682;2023-06-14T04:06:25;9.45;;;3.47;;
70929;SDS011;58588;48.102;19.682;2023-06-14T04:09:32;9.30;;;3.45;;
70929;SDS011;58588;48.102;19.682;2023-06-14T04:12:39;13.10;;;4.00;;
70929;SDS011;58588;48.102;19.682;2023-06-14T04:15:43;9.90;;;3.83;;
70929;SDS011;58588;48.102;19.682;2023-06-14T04:18:47;9.43;;;3.75;;
70929;SDS011;58588;48.102;19.682;2023-06-14T04:21:54;9.07;;;3.60;;
70929;SDS011;58588;48.102;19.682;2023-06-14T04:24:57;11.55;;;3.90;;
70929;SDS011;58588;48.102;19.682;2023-06-14T04:28:03;9.60;;;3.33;;
70929;SDS011;58588;48.102;19.682;2023-06-14T04:31:05;8.82;;;3.42;;
70929;SDS011;58588;48.102;19.682;2023-06-14T04:34:08;11.68;;;4.80;;
70929;SDS011;58588;48.102;19.682;2023-06-14T04:37:16;12.65;;;3.97;;
70929;SDS011;58588;48.102;19.682;2023-06-14T04:40:22;10.65;;;3.83;;
70929;SDS011;58588;48.102;19.682;2023-06-14T04:43:25;9.37;;;4.03;;
70929;SDS011;58588;48.102;19.682;2023-06-14T04:46:27;8.75;;;3.75;;
70929;SDS011;58588;48.102;19.682;2023-06-14T04:49:30;11.77;;;4.22;;
70929;SDS011;58588;48.102;19.682;2023-06-14T04:52:32;13.00;;;4.20;;
70929;SDS011;58588;48.102;19.682;2023-06-14T04:55:35;9.43;;;4.40;;
70929;SDS011;58588;48.102;19.682;2023-06-14T04:58:39;9.20;;;4.03;;
70929;SDS011;58588;48.102;19.682;2023-06-14T05:01:44;10.57;;;4.50;;
70929;SDS011;58588;48.102;19.682;2023-06-14T05:04:48;9.50;;;4.22;;
70929;SDS011;58588;48.102;19.682;2023-06-14T05:07:53;11.30;;;4.22;;
70929;SDS011;58588;48.102;19.682;2023-06-14T05:10:55;9.48;;;3.95;;
70929;SDS011;58588;48.102;19.682;2023-06-14T05:14:00;9.53;;;3.80;;
70929;SDS011;58588;48.102;19.682;2023-06-14T05:17:03;9.20;;;4.13;;
70929;SDS011;58588;48.102;19.682;2023-06-14T05:20:06;9.15;;;3.78;;
70929;SDS011;58588;48.102;19.682;2023-06-14T05:23:11;10.07;;;3.85;;
70929;SDS011;58588;48.102;19.682;2023-06-14T05:26:15;10.02;;;4.05;;
70929;SDS011;58588;48.102;19.682;2023-06-14T05:29:19;11.60;;;3.97;;
70929;SDS011;58588;48.102;19.682;2023-06-14T05:32:21;10.35;;;4.07;;
70929;SDS011;58588;48.102;19.682;2023-06-14T05:35:23;11.25;;;3.65;;
70929;SDS011;58588;48.102;19.682;2023-06-14T05:38:26;12.27;;;3.80;;
70929;SDS011;58588;48.102;19.682;2023-06-14T05:41:29;9.80;;;3.92;;
70929;SDS011;58588;48.102;19.682;2023-06-14T05:44:33;10.50;;;4.00;;
70929;SDS011;58588;48.102;19.682;2023-06-14T05:47:35;10.60;;;3.67;;
70929;SDS011;58588;48.102;19.682;2023-06-14T05:50:37;9.38;;;4.45;;
70929;SDS011;58588;48.102;19.682;2023-06-14T05:53:45;9.05;;;3.90;;
70929;SDS011;58588;48.102;19.682;2023-06-14T05:56:53;13.35;;;4.07;;
70929;SDS011;58588;48.102;19.682;2023-06-14T06:00:03;9.13;;;3.73;;
70929;SDS011;58588;48.102;19.682;2023-06-14T06:03:12;8.00;;;3.13;;
70929;SDS011;58588;48.102;19.682;2023-06-14T06:06:17;8.10;;;3.60;;
70929;SDS011;58588;48.102;19.682;2023-06-14T06:09:19;8.98;;;3.75;;
70929;SDS011;58588;48.102;19.682;2023-06-14T06:12:27;11.85;;;3.40;;
70929;SDS011;58588;48.102;19.682;2023-06-14T06:15:36;9.17;;;3.43;;
70929;SDS011;58588;48.102;19.682;2023-06-14T06:18:42;7.78;;;3.33;;
70929;SDS011;58588;48.102;19.682;2023-06-14T06:21:46;7.78;;;3.38;;
70929;SDS011;58588;48.102;19.682;2023-06-14T06:24:51;8.68;;;3.25;;
70929;SDS011;58588;48.102;19.682;2023-06-14T06:27:56;8.27;;;3.60;;
70929;SDS011;58588;48.102;19.682;2023-06-14T06:31:02;9.47;;;3.60;;
70929;SDS011;58588;48.102;19.682;2023-06-14T06:34:07;9.60;;;3.30;;
70929;SDS011;58588;48.102;19.682;2023-06-14T06:37:13;8.15;;;3.28;;
70929;SDS011;58588;48.102;19.682;2023-06-14T06:40:18;9.20;;;3.33;;
70929;SDS011;58588;48.102;19.682;2023-06-14T06:43:22;8.45;;;3.50;;
70929;SDS011;58588;48.102;19.682;2023-06-14T06:46:27;10.53;;;3.63;;
70929;SDS011;58588;48.102;19.682;2023-06-14T06:49:31;7.95;;;3.50;;
70929;SDS011;58588;48.102;19.682;2023-06-14T06:52:36;8.63;;;3.85;;
70929;SDS011;58588;48.102;19.682;2023-06-14T06:55:41;8.48;;;3.75;;
70929;SDS011;58588;48.102;19.682;2023-06-14T06:58:43;9.93;;;3.50;;
70929;SDS011;58588;48.102;19.682;2023-06-14T07:01:47;10.13;;;3.60;;
70929;SDS011;58588;48.102;19.682;2023-06-14T07:04:49;7.93;;;3.45;;
70929;SDS011;58588;48.102;19.682;2023-06-14T07:07:55;8.50;;;3.45;;
70929;SDS011;58588;48.102;19.682;2023-06-14T07:10:57;9.10;;;3.60;;
70929;SDS011;58588;48.102;19.682;2023-06-14T07:14:00;8.73;;;3.97;;
70929;SDS011;58588;48.102;19.682;2023-06-14T07:17:03;8.33;;;4.53;;
70929;SDS011;58588;48.102;19.682;2023-06-14T07:20:06;7.90;;;4.00;;
70929;SDS011;58588;48.102;19.682;2023-06-14T07:23:13;7.70;;;3.55;;
70929;SDS011;58588;48.102;19.682;2023-06-14T07:26:15;10.88;;;3.83;;
70929;SDS011;58588;48.102;19.682;2023-06-14T07:29:17;7.57;;;3.20;;
70929;SDS011;58588;48.102;19.682;2023-06-14T07:32:21;7.80;;;3.60;;
70929;SDS011;58588;48.102;19.682;2023-06-14T07:35:24;6.90;;;3.40;;
70929;SDS011;58588;48.102;19.682;2023-06-14T07:38:27;6.85;;;2.92;;
70929;SDS011;58588;48.102;19.682;2023-06-14T07:41:29;7.45;;;3.20;;
70929;SDS011;58588;48.102;19.682;2023-06-14T07:44:38;7.82;;;3.50;;
70929;SDS011;58588;48.102;19.682;2023-06-14T07:47:42;8.20;;;3.43;;
70929;SDS011;58588;48.102;19.682;2023-06-14T07:50:44;8.98;;;3.55;;
70929;SDS011;58588;48.102;19.682;2023-06-14T07:53:46;7.78;;;3.58;;
70929;SDS011;58588;48.102;19.682;2023-06-14T07:56:52;8.43;;;3.50;;
70929;SDS011;58588;48.102;19.682;2023-06-14T07:59:54;8.00;;;3.47;;
70929;SDS011;58588;48.102;19.682;2023-06-14T08:02:57;9.20;;;3.57;;
70929;SDS011;58588;48.102;19.682;2023-06-14T08:06:00;9.75;;;3.30;;
70929;SDS011;58588;48.102;19.682;2023-06-14T08:09:02;8.63;;;3.28;;
70929;SDS011;58588;48.102;19.682;2023-06-14T08:12:04;8.30;;;3.30;;
70929;SDS011;58588;48.102;19.682;2023-06-14T08:15:07;7.97;;;3.42;;
70929;SDS011;58588;48.102;19.682;2023-06-14T08:18:12;6.67;;;3.20;;
70929;SDS011;58588;48.102;19.682;2023-06-14T08:21:14;9.10;;;3.47;;
70929;SDS011;58588;48.102;19.682;2023-06-14T08:24:16;8.57;;;3.63;;
70929;SDS011;58588;48.102;19.682;2023-06-14T08:27:19;8.23;;;3.28;;
70929;SDS011;58588;48.102;19.682;2023-06-14T08:30:21;8.40;;;3.38;;
70929;SDS011;58588;48.102;19.682;2023-06-14T08:33:25;7.40;;;3.20;;
70929;SDS011;58588;48.102;19.682;2023-06-14T08:36:27;7.72;;;3.38;;
70929;SDS011;58588;48.102;19.682;2023-06-14T08:39:29;7.32;;;3.20;;
70929;SDS011;58588;48.102;19.682;2023-06-14T08:42:31;7.63;;;3.45;;
70929;SDS011;58588;48.102;19.682;2023-06-14T08:45:35;9.65;;;3.35;;
70929;SDS011;58588;48.102;19.682;2023-06-14T08:48:39;8.57;;;3.90;;
70929;SDS011;58588;48.102;19.682;2023-06-14T08:51:41;7.55;;;3.08;;
70929;SDS011;58588;48.102;19.682;2023-06-14T08:54:44;7.43;;;3.20;;
70929;SDS011;58588;48.102;19.682;2023-06-14T08:57:48;9.30;;;3.40;;
70929;SDS011;58588;48.102;19.682;2023-06-14T09:00:51;8.63;;;3.42;;
70929;SDS011;58588;48.102;19.682;2023-06-14T09:03:55;8.40;;;3.40;;
70929;SDS011;58588;48.102;19.682;2023-06-14T09:06:57;7.07;;;3.08;;
70929;SDS011;58588;48.102;19.682;2023-06-14T09:10:08;9.23;;;3.28;;
70929;SDS011;58588;48.102;19.682;2023-06-14T09:13:11;7.57;;;2.95;;
70929;SDS011;58588;48.102;19.682;2023-06-14T09:16:13;7.63;;;3.38;;
70929;SDS011;58588;48.102;19.682;2023-06-14T09:19:22;7.13;;;3.20;;
70929;SDS011;58588;48.102;19.682;2023-06-14T09:22:25;11.88;;;3.10;;
70929;SDS011;58588;48.102;19.682;2023-06-14T09:25:27;7.07;;;3.08;;
70929;SDS011;58588;48.102;19.682;2023-06-14T09:28:29;8.23;;;3.20;;
70929;SDS011;58588;48.102;19.682;2023-06-14T09:31:31;8.82;;;3.60;;
70929;SDS011;58588;48.102;19.682;2023-06-14T09:34:34;7.87;;;4.00;;
70929;SDS011;58588;48.102;19.682;2023-06-14T09:37:37;7.55;;;3.13;;
70929;SDS011;58588;48.102;19.682;2023-06-14T09:40:39;11.00;;;3.63;;
70929;SDS011;58588;48.102;19.682;2023-06-14T09:43:41;7.53;;;3.42;;
70929;SDS011;58588;48.102;19.682;2023-06-14T09:46:45;7.60;;;3.17;;
70929;SDS011;58588;48.102;19.682;2023-06-14T09:49:50;7.33;;;3.33;;
70929;SDS011;58588;48.102;19.682;2023-06-14T09:52:55;7.55;;;3.53;;
70929;SDS011;58588;48.102;19.682;2023-06-14T09:56:04;9.38;;;3.83;;
70929;SDS011;58588;48.102;19.682;2023-06-14T09:59:08;8.88;;;3.40;;
70929;SDS011;58588;48.102;19.682;2023-06-14T10:02:13;7.90;;;3.40;;
70929;SDS011;58588;48.102;19.682;2023-06-14T10:05:24;7.07;;;3.30;;
70929;SDS011;58588;48.102;19.682;2023-06-14T10:08:30;7.60;;;3.42;;
70929;SDS011;58588;48.102;19.682;2023-06-14T10:11:35;6.97;;;3.03;;
70929;SDS011;58588;48.102;19.682;2023-06-14T10:14:40;8.15;;;3.30;;
70929;SDS011;58588;48.102;19.682;2023-06-14T10:17:43;10.10;;;3.60;;
70929;SDS011;58588;48.102;19.682;2023-06-14T10:20:52;6.80;;;2.97;;
70929;SDS011;58588;48.102;19.682;2023-06-14T10:24:05;7.90;;;4.00;;
70929;SDS011;58588;48.102;19.682;2023-06-14T10:27:11;8.77;;;3.20;;
70929;SDS011;58588;48.102;19.682;2023-06-14T10:30:17;6.38;;;3.03;;
70929;SDS011;58588;48.102;19.682;2023-06-14T10:33:26;6.70;;;2.75;;
70929;SDS011;58588;48.102;19.682;2023-06-14T10:36:29;6.43;;;2.60;;
70929;SDS011;58588;48.102;19.682;2023-06-14T10:39:37;7.45;;;3.22;;
70929;SDS011;58588;48.102;19.682;2023-06-14T10:42:41;8.18;;;3.58;;
70929;SDS011;58588;48.102;19.682;2023-06-14T10:46:12;7.93;;;3.20;;
70929;SDS011;58588;48.102;19.682;2023-06-14T10:49:15;7.30;;;3.38;;
70929;SDS011;58588;48.102;19.682;2023-06-14T10:52:22;7.70;;;3.30;;
70929;SDS011;58588;48.102;19.682;2023-06-14T10:55:28;7.13;;;3.30;;
70929;SDS011;58588;48.102;19.682;2023-06-14T10:58:36;9.07;;;3.30;;
70929;SDS011;58588;48.102;19.682;2023-06-14T11:01:40;7.03;;;3.33;;
70929;SDS011;58588;48.102;19.682;2023-06-14T11:04:50;7.53;;;2.97;;
70929;SDS011;58588;48.102;19.682;2023-06-14T11:08:15;9.33;;;2.90;;
70929;SDS011;58588;48.102;19.682;2023-06-14T11:11:30;6.97;;;2.90;;
70929;SDS011;58588;48.102;19.682;2023-06-14T11:14:34;7.18;;;3.00;;
70929;SDS011;58588;48.102;19.682;2023-06-14T11:17:36;6.70;;;2.78;;
70929;SDS011;58588;48.102;19.682;2023-06-14T11:20:39;7.13;;;3.00;;
70929;SDS011;58588;48.102;19.682;2023-06-14T11:23:43;6.90;;;3.17;;
70929;SDS011;58588;48.102;19.682;2023-06-14T11:26:50;7.40;;;2.95;;
70929;SDS011;58588;48.102;19.682;2023-06-14T11:29:52;7.70;;;3.35;;
70929;SDS011;58588;48.102;19.682;2023-06-14T11:32:55;8.27;;;3.65;;
70929;SDS011;58588;48.102;19.682;2023-06-14T11:35:57;6.60;;;3.15;;
70929;SDS011;58588;48.102;19.682;2023-06-14T11:39:00;6.30;;;2.87;;
70929;SDS011;58588;48.102;19.682;2023-06-14T11:42:06;8.55;;;3.30;;
70929;SDS011;58588;48.102;19.682;2023-06-14T11:45:09;7.55;;;3.00;;
70929;SDS011;58588;48.102;19.682;2023-06-14T11:48:12;8.75;;;2.92;;
70929;SDS011;58588;48.102;19.682;2023-06-14T11:51:14;8.63;;;2.70;;
70929;SDS011;58588;48.102;19.682;2023-06-14T11:54:17;6.83;;;2.70;;
70929;SDS011;58588;48.102;19.682;2023-06-14T11:57:19;6.75;;;2.85;;
70929;SDS011;58588;48.102;19.682;2023-06-14T12:00:24;7.03;;;2.90;;
70929;SDS011;58588;48.102;19.682;2023-06-14T12:03:27;7.47;;;3.20;;
70929;SDS011;58588;48.102;19.682;2023-06-14T12:06:30;6.68;;;2.67;;
70929;SDS011;58588;48.102;19.682;2023-06-14T12:09:37;6.90;;;2.83;;
70929;SDS011;58588;48.102;19.682;2023-06-14T12:12:39;7.15;;;2.33;;
70929;SDS011;58588;48.102;19.682;2023-06-14T12:15:42;5.88;;;2.42;;
70929;SDS011;58588;48.102;19.682;2023-06-14T12:18:44;8.07;;;2.28;;
70929;SDS011;58588;48.102;19.682;2023-06-14T12:21:46;9.10;;;2.60;;
70929;SDS011;58588;48.102;19.682;2023-06-14T12:24:52;7.80;;;2.30;;
70929;SDS011;58588;48.102;19.682;2023-06-14T12:27:54;6.57;;;2.25;;
70929;SDS011;58588;48.102;19.682;2023-06-14T12:30:56;6.43;;;2.47;;
70929;SDS011;58588;48.102;19.682;2023-06-14T12:33:59;6.53;;;2.50;;
70929;SDS011;58588;48.102;19.682;2023-06-14T12:37:01;6.65;;;2.22;;
70929;SDS011;58588;48.102;19.682;2023-06-14T12:40:06;6.33;;;2.33;;
70929;SDS011;58588;48.102;19.682;2023-06-14T12:43:09;5.85;;;2.15;;
70929;SDS011;58588;48.102;19.682;2023-06-14T12:46:11;8.57;;;2.13;;
70929;SDS011;58588;48.102;19.682;2023-06-14T12:49:13;7.53;;;2.17;;
70929;SDS011;58588;48.102;19.682;2023-06-14T12:52:15;6.75;;;2.22;;
70929;SDS011;58588;48.102;19.682;2023-06-14T12:55:18;6.10;;;2.07;;
70929;SDS011;58588;48.102;19.682;2023-06-14T12:58:20;5.68;;;2.25;;
70929;SDS011;58588;48.102;19.682;2023-06-14T13:01:24;6.07;;;2.17;;
70929;SDS011;58588;48.102;19.682;2023-06-14T13:04:26;6.65;;;2.30;;
70929;SDS011;58588;48.102;19.682;2023-06-14T13:07:28;8.13;;;2.15;;
70929;SDS011;58588;48.102;19.682;2023-06-14T13:10:31;5.40;;;2.10;;
70929;SDS011;58588;48.102;19.682;2023-06-14T13:13:34;7.15;;;2.25;;
70929;SDS011;58588;48.102;19.682;2023-06-14T13:16:36;6.45;;;2.33;;
70929;SDS011;58588;48.102;19.682;2023-06-14T13:19:38;6.03;;;2.20;;
70929;SDS011;58588;48.102;19.682;2023-06-14T13:22:40;6.28;;;2.20;;
70929;SDS011;58588;48.102;19.682;2023-06-14T13:25:43;5.20;;;2.03;;
70929;SDS011;58588;48.102;19.682;2023-06-14T13:28:45;7.63;;;2.50;;
70929;SDS011;58588;48.102;19.682;2023-06-14T13:31:47;5.40;;;2.28;;
70929;SDS011;58588;48.102;19.682;2023-06-14T13:34:49;6.95;;;2.50;;
70929;SDS011;58588;48.102;19.682;2023-06-14T13:37:52;7.35;;;2.35;;
70929;SDS011;58588;48.102;19.682;2023-06-14T13:40:55;5.60;;;2.40;;
70929;SDS011;58588;48.102;19.682;2023-06-14T13:43:57;6.65;;;2.72;;
70929;SDS011;58588;48.102;19.682;2023-06-14T13:47:00;7.82;;;2.65;;
70929;SDS011;58588;48.102;19.682;2023-06-14T13:50:02;7.97;;;2.58;;
70929;SDS011;58588;48.102;19.682;2023-06-14T13:53:04;6.72;;;2.67;;
70929;SDS011;58588;48.102;19.682;2023-06-14T13:56:08;7.13;;;2.93;;
70929;SDS011;58588;48.102;19.682;2023-06-14T13:59:10;7.13;;;2.60;;
70929;SDS011;58588;48.102;19.682;2023-06-14T14:02:12;8.35;;;2.65;;
70929;SDS011;58588;48.102;19.682;2023-06-14T14:05:14;6.13;;;2.67;;
70929;SDS011;58588;48.102;19.682;2023-06-14T14:08:16;7.40;;;2.53;;
70929;SDS011;58588;48.102;19.682;2023-06-14T14:11:20;8.70;;;2.80;;
70929;SDS011;58588;48.102;19.682;2023-06-14T14:14:22;8.68;;;2.55;;
70929;SDS011;58588;48.102;19.682;2023-06-14T14:17:24;6.85;;;2.70;;
70929;SDS011;58588;48.102;19.682;2023-06-14T14:20:27;6.13;;;2.60;;
70929;SDS011;58588;48.102;19.682;2023-06-14T14:23:31;6.85;;;2.42;;
70929;SDS011;58588;48.102;19.682;2023-06-14T14:26:34;5.90;;;2.50;;
70929;SDS011;58588;48.102;19.682;2023-06-14T14:29:36;5.75;;;2.40;;
70929;SDS011;58588;48.102;19.682;2023-06-14T14:32:38;5.97;;;2.50;;
70929;SDS011;58588;48.102;19.682;2023-06-14T14:35:40;5.50;;;2.38;;
70929;SDS011;58588;48.102;19.682;2023-06-14T14:38:43;6.13;;;2.50;;
70929;SDS011;58588;48.102;19.682;2023-06-14T14:41:46;7.20;;;2.70;;
70929;SDS011;58588;48.102;19.682;2023-06-14T14:44:48;6.50;;;2.40;;
70929;SDS011;58588;48.102;19.682;2023-06-14T14:47:51;5.95;;;2.38;;
70929;SDS011;58588;48.102;19.682;2023-06-14T14:50:53;7.55;;;2.55;;
70929;SDS011;58588;48.102;19.682;2023-06-14T14:53:55;6.15;;;2.60;;
70929;SDS011;58588;48.102;19.682;2023-06-14T14:56:59;7.03;;;2.80;;
70929;SDS011;58588;48.102;19.682;2023-06-14T15:00:02;7.70;;;2.53;;
70929;SDS011;58588;48.102;19.682;2023-06-14T15:03:21;7.53;;;2.75;;
70929;SDS011;58588;48.102;19.682;2023-06-14T15:06:30;7.13;;;2.55;;
70929;SDS011;58588;48.102;19.682;2023-06-14T15:09:35;6.43;;;2.50;;
70929;SDS011;58588;48.102;19.682;2023-06-14T15:12:39;6.70;;;2.60;;
70929;SDS011;58588;48.102;19.682;2023-06-14T15:15:41;8.00;;;2.50;;
70929;SDS011;58588;48.102;19.682;2023-06-14T15:18:44;6.60;;;2.72;;
70929;SDS011;58588;48.102;19.682;2023-06-14T15:21:48;8.63;;;2.75;;
70929;SDS011;58588;48.102;19.682;2023-06-14T15:24:52;7.63;;;2.67;;
70929;SDS011;58588;48.102;19.682;2023-06-14T15:27:56;5.90;;;2.40;;
70929;SDS011;58588;48.102;19.682;2023-06-14T15:30:58;6.90;;;2.70;;
70929;SDS011;58588;48.102;19.682;2023-06-14T15:34:00;7.45;;;2.65;;
70929;SDS011;58588;48.102;19.682;2023-06-14T15:37:03;5.85;;;2.30;;
70929;SDS011;58588;48.102;19.682;2023-06-14T15:40:08;6.78;;;2.70;;
70929;SDS011;58588;48.102;19.682;2023-06-14T15:43:12;11.60;;;2.60;;
70929;SDS011;58588;48.102;19.682;2023-06-14T15:46:14;6.45;;;2.70;;
70929;SDS011;58588;48.102;19.682;2023-06-14T15:49:16;6.38;;;2.30;;
70929;SDS011;58588;48.102;19.682;2023-06-14T15:52:19;7.68;;;2.50;;
70929;SDS011;58588;48.102;19.682;2023-06-14T15:55:21;6.03;;;2.35;;
70929;SDS011;58588;48.102;19.682;2023-06-14T15:58:24;8.43;;;3.23;;
70929;SDS011;58588;48.102;19.682;2023-06-14T16:01:26;6.00;;;2.58;;
70929;SDS011;58588;48.102;19.682;2023-06-14T16:04:28;6.00;;;2.63;;
70929;SDS011;58588;48.102;19.682;2023-06-14T16:07:31;8.68;;;2.72;;
70929;SDS011;58588;48.102;19.682;2023-06-14T16:10:33;6.90;;;2.80;;
70929;SDS011;58588;48.102;19.682;2023-06-14T16:13:39;7.47;;;2.43;;
70929;SDS011;58588;48.102;19.682;2023-06-14T16:16:42;5.45;;;2.30;;
70929;SDS011;58588;48.102;19.682;2023-06-14T16:19:53;11.70;;;2.70;;
70929;SDS011;58588;48.102;19.682;2023-06-14T16:22:56;9.27;;;2.80;;
70929;SDS011;58588;48.102;19.682;2023-06-14T16:25:58;7.00;;;2.60;;
70929;SDS011;58588;48.102;19.682;2023-06-14T16:29:02;5.50;;;2.40;;
70929;SDS011;58588;48.102;19.682;2023-06-14T16:32:04;7.10;;;2.30;;
70929;SDS011;58588;48.102;19.682;2023-06-14T16:35:37;8.07;;;2.90;;
70929;SDS011;58588;48.102;19.682;2023-06-14T16:39:29;8.95;;;2.60;;
70929;SDS011;58588;48.102;19.682;2023-06-14T16:42:31;10.23;;;2.45;;
70929;SDS011;58588;48.102;19.682;2023-06-14T16:45:34;7.30;;;2.57;;
70929;SDS011;58588;48.102;19.682;2023-06-14T16:48:36;6.55;;;2.80;;
70929;SDS011;58588;48.102;19.682;2023-06-14T16:51:38;6.78;;;2.70;;
70929;SDS011;58588;48.102;19.682;2023-06-14T16:54:40;6.60;;;2.60;;
70929;SDS011;58588;48.102;19.682;2023-06-14T16:57:42;6.65;;;2.65;;
70929;SDS011;58588;48.102;19.682;2023-06-14T17:00:46;8.47;;;2.70;;
70929;SDS011;58588;48.102;19.682;2023-06-14T17:03:48;8.02;;;2.70;;
70929;SDS011;58588;48.102;19.682;2023-06-14T17:06:51;8.55;;;2.97;;
70929;SDS011;58588;48.102;19.682;2023-06-14T17:09:53;7.75;;;2.72;;
70929;SDS011;58588;48.102;19.682;2023-06-14T17:12:55;6.97;;;2.97;;
70929;SDS011;58588;48.102;19.682;2023-06-14T17:15:59;7.90;;;3.10;;
70929;SDS011;58588;48.102;19.682;2023-06-14T17:19:02;6.95;;;3.05;;
70929;SDS011;58588;48.102;19.682;2023-06-14T17:22:05;7.45;;;3.15;;
70929;SDS011;58588;48.102;19.682;2023-06-14T17:25:07;7.38;;;2.83;;
70929;SDS011;58588;48.102;19.682;2023-06-14T17:28:10;6.45;;;2.70;;
70929;SDS011;58588;48.102;19.682;2023-06-14T17:31:14;7.13;;;2.80;;
70929;SDS011;58588;48.102;19.682;2023-06-14T17:34:16;6.78;;;2.92;;
70929;SDS011;58588;48.102;19.682;2023-06-14T17:37:18;8.60;;;3.20;;
70929;SDS011;58588;48.102;19.682;2023-06-14T17:40:20;9.52;;;3.28;;
70929;SDS011;58588;48.102;19.682;2023-06-14T17:43:22;12.52;;;3.40;;
70929;SDS011;58588;48.102;19.682;2023-06-14T17:46:25;8.90;;;3.00;;
70929;SDS011;58588;48.102;19.682;2023-06-14T17:49:27;8.38;;;2.85;;
70929;SDS011;58588;48.102;19.682;2023-06-14T17:52:29;8.27;;;3.30;;
70929;SDS011;58588;48.102;19.682;2023-06-14T17:55:33;8.50;;;2.95;;
70929;SDS011;58588;48.102;19.682;2023-06-14T17:58:35;8.00;;;3.13;;
70929;SDS011;58588;48.102;19.682;2023-06-14T18:01:38;7.23;;;3.20;;
70929;SDS011;58588;48.102;19.682;2023-06-14T18:04:40;8.82;;;2.92;;
70929;SDS011;58588;48.102;19.682;2023-06-14T18:07:42;7.05;;;3.03;;
70929;SDS011;58588;48.102;19.682;2023-06-14T18:10:44;9.65;;;3.42;;